sensor_id;sensor_type;location;lat;lon;timestamp;P1;durP1;ratioP1;P2;durP2;ratioP2
5137;SDS011;53959;53.626;11.410;2022-12-10T00:02:19;21.53;;;11.07;;
5137;SDS011;53959;53.626;11.410;2022-12-10T00:04:44;28.43;;;11.40;;
5137;SDS011;53959;53.626;11.410;2022-12-10T00:07:10;25.73;;;11.23;;
5137;SDS011;53959;53.626;11.410;2022-12-10T00:09:35;21.97;;;11.57;;
5137;SDS011;53959;53.626;11.410;2022-12-10T00:12:01;22.40;;;10.37;;
5137;SDS011;53959;53.626;11.410;2022-12-10T00:14:26;29.27;;;12.87;;
5137;SDS011;53959;53.626;11.410;2022-12-10T00:16:52;29.87;;;12.20;;
5137;SDS011;53959;53.626;11.410;2022-12-10T00:19:17;28.43;;;12.93;;
5137;SDS011;53959;53.626;11.410;2022-12-10T00:21:43;23.60;;;11.47;;
5137;SDS011;53959;53.626;11.410;2022-12-10T00:24:11;24.43;;;10.83;;
5137;SDS011;53959;53.626;11.410;2022-12-10T00:26:37;30.30;;;13.07;;
5137;SDS011;53959;53.626;11.410;2022-12-10T00:29:04;31.27;;;12.20;;
5137;SDS011;53959;53.626;11.410;2022-12-10T00:31:33;24.17;;;11.17;;
5137;SDS011;53959;53.626;11.410;2022-12-10T00:34:02;27.60;;;11.33;;
5137;SDS011;53959;53.626;11.410;2022-12-10T00:36:33;25.13;;;10.63;;
5137;SDS011;53959;53.626;11.410;2022-12-10T00:39:02;20.90;;;9.90;;
5137;SDS011;53959;53.626;11.410;2022-12-10T00:41:28;30.00;;;12.20;;
5137;SDS011;53959;53.626;11.410;2022-12-10T00:43:54;26.83;;;12.13;;
5137;SDS011;53959;53.626;11.410;2022-12-10T00:46:20;27.40;;;11.37;;
5137;SDS011;53959;53.626;11.410;2022-12-10T00:48:45;31.93;;;11.80;;
5137;SDS011;53959;53.626;11.410;2022-12-10T00:51:12;28.93;;;11.90;;
5137;SDS011;53959;53.626;11.410;2022-12-10T00:53:40;29.30;;;10.13;;
5137;SDS011;53959;53.626;11.410;2022-12-10T00:56:07;27.63;;;12.20;;
5137;SDS011;53959;53.626;11.410;2022-12-10T00:58:38;34.23;;;12.20;;
5137;SDS011;53959;53.626;11.410;2022-12-10T01:01:17;31.97;;;12.97;;
5137;SDS011;53959;53.626;11.410;2022-12-10T01:03:57;27.33;;;12.10;;
5137;SDS011;53959;53.626;11.410;2022-12-10T01:06:29;34.13;;;13.73;;
5137;SDS011;53959;53.626;11.410;2022-12-10T01:08:58;29.67;;;11.40;;
5137;SDS011;53959;53.626;11.410;2022-12-10T01:11:28;33.87;;;13.97;;
5137;SDS011;53959;53.626;11.410;2022-12-10T01:13:56;29.00;;;12.40;;
5137;SDS011;53959;53.626;11.410;2022-12-10T01:16:22;29.83;;;11.73;;
5137;SDS011;53959;53.626;11.410;2022-12-10T01:18:48;24.97;;;11.97;;
5137;SDS011;53959;53.626;11.410;2022-12-10T01:21:15;27.03;;;12.50;;
5137;SDS011;53959;53.626;11.410;2022-12-10T01:23:45;25.07;;;11.27;;
5137;SDS011;53959;53.626;11.410;2022-12-10T01:26:13;26.77;;;11.90;;
5137;SDS011;53959;53.626;11.410;2022-12-10T01:28:41;32.33;;;12.67;;
5137;SDS011;53959;53.626;11.410;2022-12-10T01:31:08;25.13;;;11.20;;
5137;SDS011;53959;53.626;11.410;2022-12-10T01:33:38;38.33;;;11.77;;
5137;SDS011;53959;53.626;11.410;2022-12-10T01:36:06;30.23;;;11.87;;
5137;SDS011;53959;53.626;11.410;2022-12-10T01:38:34;24.00;;;11.50;;
5137;SDS011;53959;53.626;11.410;2022-12-10T01:41:00;25.20;;;10.73;;
5137;SDS011;53959;53.626;11.410;2022-12-10T01:43:26;24.43;;;11.67;;
5137;SDS011;53959;53.626;11.410;2022-12-10T01:45:52;31.93;;;12.20;;
5137;SDS011;53959;53.626;11.410;2022-12-10T01:48:18;31.20;;;12.57;;
5137;SDS011;53959;53.626;11.410;2022-12-10T01:50:44;32.77;;;12.37;;
5137;SDS011;53959;53.626;11.410;2022-12-10T01:53:10;31.73;;;12.07;;
5137;SDS011;53959;53.626;11.410;2022-12-10T01:55:41;24.50;;;11.33;;
5137;SDS011;53959;53.626;11.410;2022-12-10T01:58:13;28.30;;;11.20;;
5137;SDS011;53959;53.626;11.410;2022-12-10T02:00:43;29.50;;;12.17;;
5137;SDS011;53959;53.626;11.410;2022-12-10T02:03:49;29.20;;;13.40;;
5137;SDS011;53959;53.626;11.410;2022-12-10T02:06:27;23.17;;;11.07;;
5137;SDS011;53959;53.626;11.410;2022-12-10T02:11:46;27.80;;;12.20;;
5137;SDS011;53959;53.626;11.410;2022-12-10T02:14:27;27.97;;;10.70;;
5137;SDS011;53959;53.626;11.410;2022-12-10T02:17:03;31.80;;;12.40;;
5137;SDS011;53959;53.626;11.410;2022-12-10T02:19:54;22.97;;;10.20;;
5137;SDS011;53959;53.626;11.410;2022-12-10T02:22:22;30.77;;;12.60;;
5137;SDS011;53959;53.626;11.410;2022-12-10T02:24:51;23.27;;;10.93;;
5137;SDS011;53959;53.626;11.410;2022-12-10T02:30:10;28.90;;;11.87;;
5137;SDS011;53959;53.626;11.410;2022-12-10T02:32:37;24.30;;;9.80;;
5137;SDS011;53959;53.626;11.410;2022-12-10T02:35:08;30.33;;;11.60;;
5137;SDS011;53959;53.626;11.410;2022-12-10T02:37:45;25.80;;;11.30;;
5137;SDS011;53959;53.626;11.410;2022-12-10T02:40:17;28.60;;;10.77;;
5137;SDS011;53959;53.626;11.410;2022-12-10T02:42:48;26.63;;;11.30;;
5137;SDS011;53959;53.626;11.410;2022-12-10T02:45:15;28.53;;;11.77;;
5137;SDS011;53959;53.626;11.410;2022-12-10T02:47:42;23.30;;;11.43;;
5137;SDS011;53959;53.626;11.410;2022-12-10T02:50:08;21.57;;;10.23;;
5137;SDS011;53959;53.626;11.410;2022-12-10T02:52:36;34.67;;;11.87;;
5137;SDS011;53959;53.626;11.410;2022-12-10T02:55:01;21.47;;;10.37;;
5137;SDS011;53959;53.626;11.410;2022-12-10T02:57:29;21.80;;;11.17;;
5137;SDS011;53959;53.626;11.410;2022-12-10T03:00:07;24.33;;;10.40;;
5137;SDS011;53959;53.626;11.410;2022-12-10T03:02:45;18.37;;;9.00;;
5137;SDS011;53959;53.626;11.410;2022-12-10T03:05:28;28.80;;;10.27;;
5137;SDS011;53959;53.626;11.410;2022-12-10T03:07:57;20.90;;;9.90;;
5137;SDS011;53959;53.626;11.410;2022-12-10T03:13:07;31.00;;;11.00;;
5137;SDS011;53959;53.626;11.410;2022-12-10T03:15:35;31.63;;;11.70;;
5137;SDS011;53959;53.626;11.410;2022-12-10T03:18:05;26.63;;;9.77;;
5137;SDS011;53959;53.626;11.410;2022-12-10T03:20:33;31.93;;;10.53;;
5137;SDS011;53959;53.626;11.410;2022-12-10T03:23:02;31.13;;;10.57;;
5137;SDS011;53959;53.626;11.410;2022-12-10T03:25:32;30.10;;;13.00;;
5137;SDS011;53959;53.626;11.410;2022-12-10T03:27:58;26.33;;;10.33;;
5137;SDS011;53959;53.626;11.410;2022-12-10T03:30:25;22.70;;;10.43;;
5137;SDS011;53959;53.626;11.410;2022-12-10T03:32:51;28.00;;;11.90;;
5137;SDS011;53959;53.626;11.410;2022-12-10T03:35:17;29.30;;;12.30;;
5137;SDS011;53959;53.626;11.410;2022-12-10T03:37:45;33.63;;;12.33;;
5137;SDS011;53959;53.626;11.410;2022-12-10T03:40:11;25.90;;;11.17;;
5137;SDS011;53959;53.626;11.410;2022-12-10T03:42:37;33.67;;;13.20;;
5137;SDS011;53959;53.626;11.410;2022-12-10T03:45:03;27.40;;;12.50;;
5137;SDS011;53959;53.626;11.410;2022-12-10T03:47:29;27.03;;;11.30;;
5137;SDS011;53959;53.626;11.410;2022-12-10T03:49:55;31.20;;;12.77;;
5137;SDS011;53959;53.626;11.410;2022-12-10T03:52:21;29.17;;;12.20;;
5137;SDS011;53959;53.626;11.410;2022-12-10T03:54:46;34.33;;;11.90;;
5137;SDS011;53959;53.626;11.410;2022-12-10T03:57:12;28.10;;;11.90;;
5137;SDS011;53959;53.626;11.410;2022-12-10T03:59:37;26.20;;;10.13;;
5137;SDS011;53959;53.626;11.410;2022-12-10T04:02:03;29.33;;;11.87;;
5137;SDS011;53959;53.626;11.410;2022-12-10T04:04:28;25.87;;;10.57;;
5137;SDS011;53959;53.626;11.410;2022-12-10T04:06:54;31.47;;;11.57;;
5137;SDS011;53959;53.626;11.410;2022-12-10T04:09:20;24.17;;;10.40;;
5137;SDS011;53959;53.626;11.410;2022-12-10T04:11:45;26.67;;;10.47;;
5137;SDS011;53959;53.626;11.410;2022-12-10T04:14:11;33.93;;;11.20;;
5137;SDS011;53959;53.626;11.410;2022-12-10T04:16:56;28.67;;;11.50;;
5137;SDS011;53959;53.626;11.410;2022-12-10T04:19:22;27.70;;;10.87;;
5137;SDS011;53959;53.626;11.410;2022-12-10T04:21:48;28.10;;;11.30;;
5137;SDS011;53959;53.626;11.410;2022-12-10T04:24:33;29.93;;;11.20;;
5137;SDS011;53959;53.626;11.410;2022-12-10T04:27:20;24.33;;;10.03;;
5137;SDS011;53959;53.626;11.410;2022-12-10T04:29:51;25.90;;;10.47;;
5137;SDS011;53959;53.626;11.410;2022-12-10T04:32:17;26.40;;;10.80;;
5137;SDS011;53959;53.626;11.410;2022-12-10T04:34:43;24.67;;;11.10;;
5137;SDS011;53959;53.626;11.410;2022-12-10T04:37:09;26.90;;;10.40;;
5137;SDS011;53959;53.626;11.410;2022-12-10T04:39:36;35.03;;;11.27;;
5137;SDS011;53959;53.626;11.410;2022-12-10T04:42:02;33.50;;;12.07;;
5137;SDS011;53959;53.626;11.410;2022-12-10T04:44:28;31.57;;;11.80;;
5137;SDS011;53959;53.626;11.410;2022-12-10T04:46:53;26.03;;;11.53;;
5137;SDS011;53959;53.626;11.410;2022-12-10T04:49:19;25.50;;;10.43;;
5137;SDS011;53959;53.626;11.410;2022-12-10T04:51:45;30.70;;;11.50;;
5137;SDS011;53959;53.626;11.410;2022-12-10T04:54:11;28.27;;;11.10;;
5137;SDS011;53959;53.626;11.410;2022-12-10T04:56:38;28.83;;;10.77;;
5137;SDS011;53959;53.626;11.410;2022-12-10T04:59:04;25.70;;;11.00;;
5137;SDS011;53959;53.626;11.410;2022-12-10T05:01:29;26.60;;;10.50;;
5137;SDS011;53959;53.626;11.410;2022-12-10T05:03:58;31.60;;;11.10;;
5137;SDS011;53959;53.626;11.410;2022-12-10T05:06:25;39.63;;;12.60;;
5137;SDS011;53959;53.626;11.410;2022-12-10T05:08:51;24.47;;;11.10;;
5137;SDS011;53959;53.626;11.410;2022-12-10T05:11:17;28.37;;;11.93;;
5137;SDS011;53959;53.626;11.410;2022-12-10T05:13:45;31.63;;;11.63;;
5137;SDS011;53959;53.626;11.410;2022-12-10T05:16:12;32.90;;;12.40;;
5137;SDS011;53959;53.626;11.410;2022-12-10T05:18:39;29.93;;;10.70;;
5137;SDS011;53959;53.626;11.410;2022-12-10T05:21:06;28.80;;;11.47;;
5137;SDS011;53959;53.626;11.410;2022-12-10T05:23:38;25.40;;;11.07;;
5137;SDS011;53959;53.626;11.410;2022-12-10T05:28:37;33.60;;;11.40;;
5137;SDS011;53959;53.626;11.410;2022-12-10T05:31:15;32.23;;;11.80;;
5137;SDS011;53959;53.626;11.410;2022-12-10T05:33:45;26.53;;;9.37;;
5137;SDS011;53959;53.626;11.410;2022-12-10T05:36:12;32.93;;;11.40;;
5137;SDS011;53959;53.626;11.410;2022-12-10T05:38:39;34.60;;;12.60;;
5137;SDS011;53959;53.626;11.410;2022-12-10T05:41:06;29.13;;;11.30;;
5137;SDS011;53959;53.626;11.410;2022-12-10T05:43:35;27.60;;;11.37;;
5137;SDS011;53959;53.626;11.410;2022-12-10T05:46:01;36.70;;;14.47;;
5137;SDS011;53959;53.626;11.410;2022-12-10T05:48:28;32.97;;;11.37;;
5137;SDS011;53959;53.626;11.410;2022-12-10T05:50:54;33.40;;;12.03;;
5137;SDS011;53959;53.626;11.410;2022-12-10T05:53:19;30.77;;;12.60;;
5137;SDS011;53959;53.626;11.410;2022-12-10T05:55:45;30.53;;;11.20;;
5137;SDS011;53959;53.626;11.410;2022-12-10T05:58:11;28.20;;;10.90;;
5137;SDS011;53959;53.626;11.410;2022-12-10T06:00:38;30.43;;;12.17;;
5137;SDS011;53959;53.626;11.410;2022-12-10T06:03:04;38.73;;;12.60;;
5137;SDS011;53959;53.626;11.410;2022-12-10T06:05:35;35.77;;;12.17;;
5137;SDS011;53959;53.626;11.410;2022-12-10T06:08:04;37.57;;;12.37;;
5137;SDS011;53959;53.626;11.410;2022-12-10T06:10:33;36.40;;;11.73;;
5137;SDS011;53959;53.626;11.410;2022-12-10T06:13:00;30.77;;;12.40;;
5137;SDS011;53959;53.626;11.410;2022-12-10T06:15:25;36.10;;;12.43;;
5137;SDS011;53959;53.626;11.410;2022-12-10T06:17:51;31.23;;;12.50;;
5137;SDS011;53959;53.626;11.410;2022-12-10T06:20:16;36.00;;;12.90;;
5137;SDS011;53959;53.626;11.410;2022-12-10T06:22:42;33.70;;;11.33;;
5137;SDS011;53959;53.626;11.410;2022-12-10T06:25:07;37.60;;;12.50;;
5137;SDS011;53959;53.626;11.410;2022-12-10T06:27:33;34.67;;;13.13;;
5137;SDS011;53959;53.626;11.410;2022-12-10T06:29:59;30.13;;;11.93;;
5137;SDS011;53959;53.626;11.410;2022-12-10T06:32:24;29.17;;;12.07;;
5137;SDS011;53959;53.626;11.410;2022-12-10T06:34:50;31.33;;;12.20;;
5137;SDS011;53959;53.626;11.410;2022-12-10T06:37:16;35.67;;;12.30;;
5137;SDS011;53959;53.626;11.410;2022-12-10T06:39:41;32.97;;;13.87;;
5137;SDS011;53959;53.626;11.410;2022-12-10T06:42:07;34.23;;;12.53;;
5137;SDS011;53959;53.626;11.410;2022-12-10T06:44:33;30.63;;;11.47;;
5137;SDS011;53959;53.626;11.410;2022-12-10T06:46:59;33.77;;;12.10;;
5137;SDS011;53959;53.626;11.410;2022-12-10T06:49:24;31.30;;;11.13;;
5137;SDS011;53959;53.626;11.410;2022-12-10T06:51:50;38.97;;;13.60;;
5137;SDS011;53959;53.626;11.410;2022-12-10T06:54:15;31.03;;;11.17;;
5137;SDS011;53959;53.626;11.410;2022-12-10T06:56:41;21.13;;;9.40;;
5137;SDS011;53959;53.626;11.410;2022-12-10T06:59:06;33.50;;;13.40;;
5137;SDS011;53959;53.626;11.410;2022-12-10T07:01:32;38.80;;;13.60;;
5137;SDS011;53959;53.626;11.410;2022-12-10T07:03:57;29.63;;;10.97;;
5137;SDS011;53959;53.626;11.410;2022-12-10T07:06:24;26.60;;;10.70;;
5137;SDS011;53959;53.626;11.410;2022-12-10T07:08:50;33.73;;;13.10;;
5137;SDS011;53959;53.626;11.410;2022-12-10T07:11:17;29.20;;;11.93;;
5137;SDS011;53959;53.626;11.410;2022-12-10T07:13:44;36.30;;;12.87;;
5137;SDS011;53959;53.626;11.410;2022-12-10T07:16:14;36.60;;;12.63;;
5137;SDS011;53959;53.626;11.410;2022-12-10T07:18:41;34.60;;;12.60;;
5137;SDS011;53959;53.626;11.410;2022-12-10T07:21:21;31.40;;;13.10;;
5137;SDS011;53959;53.626;11.410;2022-12-10T07:23:50;30.00;;;12.23;;
5137;SDS011;53959;53.626;11.410;2022-12-10T07:26:18;30.13;;;11.80;;
5137;SDS011;53959;53.626;11.410;2022-12-10T07:28:44;34.30;;;13.00;;
5137;SDS011;53959;53.626;11.410;2022-12-10T07:31:10;39.83;;;13.10;;
5137;SDS011;53959;53.626;11.410;2022-12-10T07:33:36;36.30;;;11.97;;
5137;SDS011;53959;53.626;11.410;2022-12-10T07:36:08;34.27;;;12.43;;
5137;SDS011;53959;53.626;11.410;2022-12-10T07:38:35;33.37;;;13.30;;
5137;SDS011;53959;53.626;11.410;2022-12-10T07:41:08;32.67;;;12.50;;
5137;SDS011;53959;53.626;11.410;2022-12-10T07:43:35;32.70;;;11.70;;
5137;SDS011;53959;53.626;11.410;2022-12-10T07:48:32;34.67;;;12.23;;
5137;SDS011;53959;53.626;11.410;2022-12-10T07:50:59;31.67;;;12.30;;
5137;SDS011;53959;53.626;11.410;2022-12-10T07:53:25;36.90;;;12.57;;
5137;SDS011;53959;53.626;11.410;2022-12-10T07:55:50;49.43;;;12.70;;
5137;SDS011;53959;53.626;11.410;2022-12-10T07:58:16;28.13;;;12.13;;
5137;SDS011;53959;53.626;11.410;2022-12-10T08:00:41;33.60;;;12.40;;
5137;SDS011;53959;53.626;11.410;2022-12-10T08:03:07;32.37;;;12.40;;
5137;SDS011;53959;53.626;11.410;2022-12-10T08:05:32;30.40;;;12.00;;
5137;SDS011;53959;53.626;11.410;2022-12-10T08:07:58;37.30;;;13.70;;
5137;SDS011;53959;53.626;11.410;2022-12-10T08:10:23;34.70;;;13.40;;
5137;SDS011;53959;53.626;11.410;2022-12-10T08:12:49;27.57;;;11.10;;
5137;SDS011;53959;53.626;11.410;2022-12-10T08:15:14;33.20;;;10.80;;
5137;SDS011;53959;53.626;11.410;2022-12-10T08:17:40;27.67;;;10.03;;
5137;SDS011;53959;53.626;11.410;2022-12-10T08:20:05;23.27;;;10.90;;
5137;SDS011;53959;53.626;11.410;2022-12-10T08:22:32;23.83;;;9.97;;
5137;SDS011;53959;53.626;11.410;2022-12-10T08:24:59;23.10;;;9.63;;
5137;SDS011;53959;53.626;11.410;2022-12-10T08:27:24;21.33;;;9.53;;
5137;SDS011;53959;53.626;11.410;2022-12-10T08:29:50;18.00;;;9.40;;
5137;SDS011;53959;53.626;11.410;2022-12-10T08:32:15;19.03;;;8.87;;
5137;SDS011;53959;53.626;11.410;2022-12-10T08:34:41;19.20;;;9.70;;
5137;SDS011;53959;53.626;11.410;2022-12-10T08:37:06;20.47;;;8.90;;
5137;SDS011;53959;53.626;11.410;2022-12-10T08:39:32;24.17;;;10.20;;
5137;SDS011;53959;53.626;11.410;2022-12-10T08:41:58;25.13;;;10.00;;
5137;SDS011;53959;53.626;11.410;2022-12-10T08:44:23;25.30;;;10.67;;
5137;SDS011;53959;53.626;11.410;2022-12-10T08:46:49;18.80;;;9.03;;
5137;SDS011;53959;53.626;11.410;2022-12-10T08:49:15;21.37;;;9.13;;
5137;SDS011;53959;53.626;11.410;2022-12-10T08:51:41;20.00;;;9.50;;
5137;SDS011;53959;53.626;11.410;2022-12-10T08:54:06;20.97;;;7.87;;
5137;SDS011;53959;53.626;11.410;2022-12-10T08:56:32;23.73;;;9.37;;
5137;SDS011;53959;53.626;11.410;2022-12-10T08:58:58;20.47;;;7.93;;
5137;SDS011;53959;53.626;11.410;2022-12-10T09:01:23;19.50;;;8.13;;
5137;SDS011;53959;53.626;11.410;2022-12-10T09:03:49;24.90;;;9.50;;
5137;SDS011;53959;53.626;11.410;2022-12-10T09:06:16;25.97;;;8.83;;
5137;SDS011;53959;53.626;11.410;2022-12-10T09:08:43;21.63;;;9.10;;
5137;SDS011;53959;53.626;11.410;2022-12-10T09:11:11;29.00;;;9.10;;
5137;SDS011;53959;53.626;11.410;2022-12-10T09:13:50;24.07;;;10.73;;
5137;SDS011;53959;53.626;11.410;2022-12-10T09:16:16;22.97;;;9.60;;
5137;SDS011;53959;53.626;11.410;2022-12-10T09:18:42;30.70;;;11.07;;
5137;SDS011;53959;53.626;11.410;2022-12-10T09:21:09;24.93;;;10.90;;
5137;SDS011;53959;53.626;11.410;2022-12-10T09:23:37;23.03;;;10.80;;
5137;SDS011;53959;53.626;11.410;2022-12-10T09:26:10;25.47;;;10.53;;
5137;SDS011;53959;53.626;11.410;2022-12-10T09:28:37;24.93;;;10.13;;
5137;SDS011;53959;53.626;11.410;2022-12-10T09:31:04;24.80;;;10.03;;
5137;SDS011;53959;53.626;11.410;2022-12-10T09:33:30;23.90;;;10.43;;
5137;SDS011;53959;53.626;11.410;2022-12-10T09:35:57;35.33;;;12.03;;
5137;SDS011;53959;53.626;11.410;2022-12-10T09:38:23;24.07;;;10.40;;
5137;SDS011;53959;53.626;11.410;2022-12-10T09:43:56;28.40;;;12.57;;
5137;SDS011;53959;53.626;11.410;2022-12-10T09:52:16;23.97;;;10.60;;
5137;SDS011;53959;53.626;11.410;2022-12-10T09:57:20;25.20;;;9.60;;
5137;SDS011;53959;53.626;11.410;2022-12-10T09:59:50;50.87;;;11.23;;
5137;SDS011;53959;53.626;11.410;2022-12-10T10:05:00;23.43;;;9.43;;
5137;SDS011;53959;53.626;11.410;2022-12-10T10:07:30;25.60;;;10.63;;
5137;SDS011;53959;53.626;11.410;2022-12-10T10:10:02;21.33;;;9.20;;
5137;SDS011;53959;53.626;11.410;2022-12-10T10:12:37;25.93;;;9.37;;
5137;SDS011;53959;53.626;11.410;2022-12-10T10:15:15;18.80;;;8.77;;
5137;SDS011;53959;53.626;11.410;2022-12-10T10:17:42;21.03;;;8.80;;
5137;SDS011;53959;53.626;11.410;2022-12-10T10:20:12;24.80;;;9.20;;
5137;SDS011;53959;53.626;11.410;2022-12-10T10:22:39;29.70;;;11.03;;
5137;SDS011;53959;53.626;11.410;2022-12-10T10:25:05;19.93;;;9.60;;
5137;SDS011;53959;53.626;11.410;2022-12-10T10:27:38;28.20;;;10.67;;
5137;SDS011;53959;53.626;11.410;2022-12-10T10:30:03;24.37;;;10.10;;
5137;SDS011;53959;53.626;11.410;2022-12-10T10:32:44;23.70;;;10.00;;
5137;SDS011;53959;53.626;11.410;2022-12-10T10:35:22;28.50;;;11.13;;
5137;SDS011;53959;53.626;11.410;2022-12-10T10:37:50;23.23;;;10.33;;
5137;SDS011;53959;53.626;11.410;2022-12-10T10:40:28;20.33;;;9.73;;
5137;SDS011;53959;53.626;11.410;2022-12-10T10:43:04;26.47;;;9.40;;
5137;SDS011;53959;53.626;11.410;2022-12-10T10:48:11;18.50;;;7.90;;
5137;SDS011;53959;53.626;11.410;2022-12-10T10:50:50;22.50;;;9.10;;
5137;SDS011;53959;53.626;11.410;2022-12-10T10:53:50;25.87;;;8.60;;
5137;SDS011;53959;53.626;11.410;2022-12-10T10:56:18;25.13;;;9.30;;
5137;SDS011;53959;53.626;11.410;2022-12-10T10:58:53;21.43;;;9.73;;
5137;SDS011;53959;53.626;11.410;2022-12-10T11:04:37;23.57;;;10.33;;
5137;SDS011;53959;53.626;11.410;2022-12-10T11:07:19;20.87;;;9.63;;
5137;SDS011;53959;53.626;11.410;2022-12-10T11:09:45;18.57;;;8.20;;
5137;SDS011;53959;53.626;11.410;2022-12-10T11:15:02;22.27;;;8.70;;
5137;SDS011;53959;53.626;11.410;2022-12-10T11:17:49;23.17;;;9.83;;
5137;SDS011;53959;53.626;11.410;2022-12-10T11:22:51;23.90;;;10.10;;
5137;SDS011;53959;53.626;11.410;2022-12-10T11:25:38;19.40;;;9.10;;
5137;SDS011;53959;53.626;11.410;2022-12-10T11:34:18;29.33;;;8.60;;
5137;SDS011;53959;53.626;11.410;2022-12-10T11:41:49;8.80;;;5.40;;
5137;SDS011;53959;53.626;11.410;2022-12-10T11:44:35;17.20;;;6.73;;
5137;SDS011;53959;53.626;11.410;2022-12-10T11:50:13;15.83;;;6.27;;
5137;SDS011;53959;53.626;11.410;2022-12-10T11:58:14;15.13;;;6.33;;
5137;SDS011;53959;53.626;11.410;2022-12-10T12:09:27;14.13;;;6.60;;
5137;SDS011;53959;53.626;11.410;2022-12-10T12:12:10;19.47;;;7.70;;
5137;SDS011;53959;53.626;11.410;2022-12-10T12:14:57;12.50;;;6.43;;
5137;SDS011;53959;53.626;11.410;2022-12-10T12:17:43;16.40;;;6.70;;
5137;SDS011;53959;53.626;11.410;2022-12-10T12:22:46;17.60;;;7.23;;
5137;SDS011;53959;53.626;11.410;2022-12-10T12:25:16;15.63;;;6.80;;
5137;SDS011;53959;53.626;11.410;2022-12-10T12:28:35;15.63;;;6.47;;
5137;SDS011;53959;53.626;11.410;2022-12-10T12:30:43;12.20;;;6.53;;
5137;SDS011;53959;53.626;11.410;2022-12-10T12:33:20;11.73;;;6.27;;
5137;SDS011;53959;53.626;11.410;2022-12-10T12:36:06;11.10;;;6.03;;
5137;SDS011;53959;53.626;11.410;2022-12-10T12:39:23;14.70;;;6.27;;
5137;SDS011;53959;53.626;11.410;2022-12-10T12:42:14;21.20;;;7.60;;
5137;SDS011;53959;53.626;11.410;2022-12-10T12:47:24;15.00;;;7.03;;
5137;SDS011;53959;53.626;11.410;2022-12-10T12:50:11;15.50;;;6.40;;
5137;SDS011;53959;53.626;11.410;2022-12-10T12:52:48;11.93;;;5.60;;
5137;SDS011;53959;53.626;11.410;2022-12-10T12:55:24;12.50;;;6.97;;
5137;SDS011;53959;53.626;11.410;2022-12-10T13:00:40;17.13;;;7.60;;
5137;SDS011;53959;53.626;11.410;2022-12-10T13:03:18;30.13;;;8.80;;
5137;SDS011;53959;53.626;11.410;2022-12-10T13:06:15;19.60;;;8.47;;
5137;SDS011;53959;53.626;11.410;2022-12-10T13:08:45;18.97;;;8.40;;
5137;SDS011;53959;53.626;11.410;2022-12-10T13:11:32;19.43;;;8.33;;
5137;SDS011;53959;53.626;11.410;2022-12-10T13:22:00;14.60;;;6.83;;
5137;SDS011;53959;53.626;11.410;2022-12-10T13:27:04;9.30;;;5.73;;
5137;SDS011;53959;53.626;11.410;2022-12-10T13:32:15;12.23;;;7.00;;
5137;SDS011;53959;53.626;11.410;2022-12-10T13:34:43;12.37;;;5.53;;
5137;SDS011;53959;53.626;11.410;2022-12-10T13:37:16;13.23;;;6.10;;
5137;SDS011;53959;53.626;11.410;2022-12-10T13:40:01;11.43;;;6.30;;
5137;SDS011;53959;53.626;11.410;2022-12-10T13:42:34;12.50;;;6.20;;
5137;SDS011;53959;53.626;11.410;2022-12-10T13:47:49;13.90;;;5.60;;
5137;SDS011;53959;53.626;11.410;2022-12-10T13:50:32;14.20;;;7.17;;
5137;SDS011;53959;53.626;11.410;2022-12-10T13:53:18;9.07;;;5.27;;
5137;SDS011;53959;53.626;11.410;2022-12-10T13:56:19;11.80;;;5.33;;
5137;SDS011;53959;53.626;11.410;2022-12-10T14:01:51;8.77;;;5.80;;
5137;SDS011;53959;53.626;11.410;2022-12-10T14:07:11;12.60;;;5.90;;
5137;SDS011;53959;53.626;11.410;2022-12-10T14:09:42;14.57;;;5.80;;
5137;SDS011;53959;53.626;11.410;2022-12-10T14:12:17;10.57;;;6.33;;
5137;SDS011;53959;53.626;11.410;2022-12-10T14:14:51;9.17;;;5.30;;
5137;SDS011;53959;53.626;11.410;2022-12-10T14:17:23;15.27;;;5.70;;
5137;SDS011;53959;53.626;11.410;2022-12-10T14:19:55;11.03;;;5.50;;
5137;SDS011;53959;53.626;11.410;2022-12-10T14:22:24;10.20;;;5.47;;
5137;SDS011;53959;53.626;11.410;2022-12-10T14:24:59;12.50;;;6.63;;
5137;SDS011;53959;53.626;11.410;2022-12-10T14:27:26;9.37;;;5.70;;
5137;SDS011;53959;53.626;11.410;2022-12-10T14:29:57;10.30;;;6.17;;
5137;SDS011;53959;53.626;11.410;2022-12-10T14:32:43;11.93;;;6.50;;
5137;SDS011;53959;53.626;11.410;2022-12-10T14:35:14;14.47;;;5.67;;
5137;SDS011;53959;53.626;11.410;2022-12-10T14:37:44;11.60;;;5.23;;
5137;SDS011;53959;53.626;11.410;2022-12-10T14:42:52;8.87;;;5.53;;
5137;SDS011;53959;53.626;11.410;2022-12-10T14:45:24;13.70;;;5.30;;
5137;SDS011;53959;53.626;11.410;2022-12-10T14:47:55;12.80;;;5.80;;
5137;SDS011;53959;53.626;11.410;2022-12-10T14:50:20;15.30;;;6.03;;
5137;SDS011;53959;53.626;11.410;2022-12-10T14:52:50;14.17;;;5.63;;
5137;SDS011;53959;53.626;11.410;2022-12-10T14:55:18;9.90;;;5.07;;
5137;SDS011;53959;53.626;11.410;2022-12-10T14:57:51;15.73;;;6.60;;
5137;SDS011;53959;53.626;11.410;2022-12-10T15:00:26;12.07;;;5.97;;
5137;SDS011;53959;53.626;11.410;2022-12-10T15:03:06;12.50;;;6.13;;
5137;SDS011;53959;53.626;11.410;2022-12-10T15:05:34;10.43;;;5.43;;
5137;SDS011;53959;53.626;11.410;2022-12-10T15:10:29;8.90;;;5.40;;
5137;SDS011;53959;53.626;11.410;2022-12-10T15:12:59;7.33;;;4.57;;
5137;SDS011;53959;53.626;11.410;2022-12-10T15:15:28;11.70;;;5.70;;
5137;SDS011;53959;53.626;11.410;2022-12-10T15:20:48;12.33;;;6.40;;
5137;SDS011;53959;53.626;11.410;2022-12-10T15:29:14;10.80;;;5.20;;
5137;SDS011;53959;53.626;11.410;2022-12-10T15:33:50;10.67;;;5.50;;
5137;SDS011;53959;53.626;11.410;2022-12-10T15:38:54;14.10;;;5.90;;
5137;SDS011;53959;53.626;11.410;2022-12-10T15:44:30;10.90;;;5.57;;
5137;SDS011;53959;53.626;11.410;2022-12-10T15:47:23;14.93;;;6.13;;
5137;SDS011;53959;53.626;11.410;2022-12-10T15:49:50;11.90;;;7.30;;
5137;SDS011;53959;53.626;11.410;2022-12-10T15:52:19;14.10;;;6.53;;
5137;SDS011;53959;53.626;11.410;2022-12-10T15:54:48;14.03;;;6.83;;
5137;SDS011;53959;53.626;11.410;2022-12-10T15:57:16;9.20;;;5.87;;
5137;SDS011;53959;53.626;11.410;2022-12-10T15:59:42;7.57;;;5.20;;
5137;SDS011;53959;53.626;11.410;2022-12-10T16:05:02;13.57;;;7.00;;
5137;SDS011;53959;53.626;11.410;2022-12-10T16:07:35;13.03;;;6.70;;
5137;SDS011;53959;53.626;11.410;2022-12-10T16:10:01;15.80;;;7.47;;
5137;SDS011;53959;53.626;11.410;2022-12-10T16:12:26;14.60;;;7.20;;
5137;SDS011;53959;53.626;11.410;2022-12-10T16:14:53;12.17;;;6.67;;
5137;SDS011;53959;53.626;11.410;2022-12-10T16:17:24;16.73;;;5.93;;
5137;SDS011;53959;53.626;11.410;2022-12-10T16:19:50;13.20;;;6.63;;
5137;SDS011;53959;53.626;11.410;2022-12-10T16:22:16;10.90;;;5.73;;
5137;SDS011;53959;53.626;11.410;2022-12-10T16:24:41;14.27;;;6.87;;
5137;SDS011;53959;53.626;11.410;2022-12-10T16:27:13;14.20;;;6.80;;
5137;SDS011;53959;53.626;11.410;2022-12-10T16:29:40;11.53;;;5.83;;
5137;SDS011;53959;53.626;11.410;2022-12-10T16:32:10;11.23;;;6.07;;
5137;SDS011;53959;53.626;11.410;2022-12-10T16:34:37;10.27;;;5.30;;
5137;SDS011;53959;53.626;11.410;2022-12-10T16:37:03;12.37;;;5.37;;
5137;SDS011;53959;53.626;11.410;2022-12-10T16:39:30;9.77;;;5.50;;
5137;SDS011;53959;53.626;11.410;2022-12-10T16:41:55;9.00;;;5.77;;
5137;SDS011;53959;53.626;11.410;2022-12-10T16:44:21;8.40;;;4.83;;